sensor_id;sensor_type;location;lat;lon;timestamp;temperature;humidity
14099;DHT22;7126;48.458;7.930;2024-01-06T00:00:35;7.40;99.90
14099;DHT22;7126;48.458;7.930;2024-01-06T00:03:00;7.40;99.90
14099;DHT22;7126;48.458;7.930;2024-01-06T00:05:26;7.40;99.90
14099;DHT22;7126;48.458;7.930;2024-01-06T00:07:52;7.30;99.90
14099;DHT22;7126;48.458;7.930;2024-01-06T00:10:17;7.20;99.90
14099;DHT22;7126;48.458;7.930;2024-01-06T00:12:43;7.20;99.90
14099;DHT22;7126;48.458;7.930;2024-01-06T00:15:09;7.20;99.90
14099;DHT22;7126;48.458;7.930;2024-01-06T00:17:36;7.10;99.90
14099;DHT22;7126;48.458;7.930;2024-01-06T00:20:02;7.10;99.90
14099;DHT22;7126;48.458;7.930;2024-01-06T00:22:27;7.10;99.90
14099;DHT22;7126;48.458;7.930;2024-01-06T00:24:53;7.20;99.90
14099;DHT22;7126;48.458;7.930;2024-01-06T00:27:18;7.20;99.90
14099;DHT22;7126;48.458;7.930;2024-01-06T00:29:44;7.30;99.90
14099;DHT22;7126;48.458;7.930;2024-01-06T00:32:09;7.30;99.90
14099;DHT22;7126;48.458;7.930;2024-01-06T00:34:35;7.20;99.90
14099;DHT22;7126;48.458;7.930;2024-01-06T00:37:00;7.20;99.90
14099;DHT22;7126;48.458;7.930;2024-01-06T00:39:26;7.30;99.90
14099;DHT22;7126;48.458;7.930;2024-01-06T00:41:51;7.20;99.90
14099;DHT22;7126;48.458;7.930;2024-01-06T00:44:17;7.10;99.90
14099;DHT22;7126;48.458;7.930;2024-01-06T00:46:42;7.10;99.90
14099;DHT22;7126;48.458;7.930;2024-01-06T00:49:08;6.90;99.90
14099;DHT22;7126;48.458;7.930;2024-01-06T00:51:34;6.90;99.90
14099;DHT22;7126;48.458;7.930;2024-01-06T00:53:59;6.90;99.90
14099;DHT22;7126;48.458;7.930;2024-01-06T00:56:24;6.90;99.90
14099;DHT22;7126;48.458;7.930;2024-01-06T00:58:52;6.90;99.90
14099;DHT22;7126;48.458;7.930;2024-01-06T01:01:17;7.00;99.90
14099;DHT22;7126;48.458;7.930;2024-01-06T01:03:43;7.00;99.90
14099;DHT22;7126;48.458;7.930;2024-01-06T01:06:08;6.90;99.90
14099;DHT22;7126;48.458;7.930;2024-01-06T01:08:34;6.90;99.90
14099;DHT22;7126;48.458;7.930;2024-01-06T01:10:59;6.80;99.90
14099;DHT22;7126;48.458;7.930;2024-01-06T01:13:25;6.70;99.90
14099;DHT22;7126;48.458;7.930;2024-01-06T01:15:50;6.70;99.90
14099;DHT22;7126;48.458;7.930;2024-01-06T01:18:16;6.60;99.90
14099;DHT22;7126;48.458;7.930;2024-01-06T01:20:41;6.70;99.90
14099;DHT22;7126;48.458;7.930;2024-01-06T01:23:07;6.80;99.90
14099;DHT22;7126;48.458;7.930;2024-01-06T01:25:33;6.80;99.90
14099;DHT22;7126;48.458;7.930;2024-01-06T01:27:58;6.80;99.90
14099;DHT22;7126;48.458;7.930;2024-01-06T01:30:24;6.80;99.90
14099;DHT22;7126;48.458;7.930;2024-01-06T01:32:49;6.80;99.90
14099;DHT22;7126;48.458;7.930;2024-01-06T01:35:15;6.80;99.90
14099;DHT22;7126;48.458;7.930;2024-01-06T01:37:40;6.90;99.90
14099;DHT22;7126;48.458;7.930;2024-01-06T01:40:06;6.90;99.90
14099;DHT22;7126;48.458;7.930;2024-01-06T01:42:33;6.90;99.90
14099;DHT22;7126;48.458;7.930;2024-01-06T01:44:58;6.90;99.90
14099;DHT22;7126;48.458;7.930;2024-01-06T01:47:24;6.90;99.90
14099;DHT22;7126;48.458;7.930;2024-01-06T01:49:49;6.80;99.90
14099;DHT22;7126;48.458;7.930;2024-01-06T01:52:16;6.80;99.90
14099;DHT22;7126;48.458;7.930;2024-01-06T01:54:42;6.60;99.90
14099;DHT22;7126;48.458;7.930;2024-01-06T01:57:08;6.60;99.90
14099;DHT22;7126;48.458;7.930;2024-01-06T01:59:36;6.60;99.90
14099;DHT22;7126;48.458;7.930;2024-01-06T02:02:02;6.60;99.90
14099;DHT22;7126;48.458;7.930;2024-01-06T02:04:27;6.60;99.90
14099;DHT22;7126;48.458;7.930;2024-01-06T02:06:53;6.70;99.90
14099;DHT22;7126;48.458;7.930;2024-01-06T02:09:19;6.70;99.90
14099;DHT22;7126;48.458;7.930;2024-01-06T02:11:45;6.70;99.90
14099;DHT22;7126;48.458;7.930;2024-01-06T02:14:10;6.70;99.90
14099;DHT22;7126;48.458;7.930;2024-01-06T02:16:35;6.70;99.90
14099;DHT22;7126;48.458;7.930;2024-01-06T02:19:01;6.70;99.90
14099;DHT22;7126;48.458;7.930;2024-01-06T02:21:28;6.70;99.90
14099;DHT22;7126;48.458;7.930;2024-01-06T02:23:54;6.80;99.90
14099;DHT22;7126;48.458;7.930;2024-01-06T02:26:19;6.80;99.90
14099;DHT22;7126;48.458;7.930;2024-01-06T02:28:45;6.80;99.90
14099;DHT22;7126;48.458;7.930;2024-01-06T02:31:13;6.80;99.90
14099;DHT22;7126;48.458;7.930;2024-01-06T02:33:39;6.80;99.90
14099;DHT22;7126;48.458;7.930;2024-01-06T02:36:04;6.80;99.90
14099;DHT22;7126;48.458;7.930;2024-01-06T02:38:30;6.80;99.90
14099;DHT22;7126;48.458;7.930;2024-01-06T02:40:55;6.80;99.90
14099;DHT22;7126;48.458;7.930;2024-01-06T02:43:21;6.80;99.90
14099;DHT22;7126;48.458;7.930;2024-01-06T02:45:48;6.80;99.90
14099;DHT22;7126;48.458;7.930;2024-01-06T02:48:13;6.70;99.90
14099;DHT22;7126;48.458;7.930;2024-01-06T02:50:39;6.70;99.90
14099;DHT22;7126;48.458;7.930;2024-01-06T02:53:04;6.70;99.90
14099;DHT22;7126;48.458;7.930;2024-01-06T02:55:30;6.70;99.90
14099;DHT22;7126;48.458;7.930;2024-01-06T02:57:55;6.70;99.90
14099;DHT22;7126;48.458;7.930;2024-01-06T03:00:21;6.70;99.90
14099;DHT22;7126;48.458;7.930;2024-01-06T03:02:46;6.70;99.90
14099;DHT22;7126;48.458;7.930;2024-01-06T03:05:12;6.70;99.90
14099;DHT22;7126;48.458;7.930;2024-01-06T03:07:37;6.70;99.90
14099;DHT22;7126;48.458;7.930;2024-01-06T03:10:03;6.70;99.90
14099;DHT22;7126;48.458;7.930;2024-01-06T03:12:29;6.70;99.90
14099;DHT22;7126;48.458;7.930;2024-01-06T03:14:54;6.70;99.90
14099;DHT22;7126;48.458;7.930;2024-01-06T03:17:20;6.70;99.90
14099;DHT22;7126;48.458;7.930;2024-01-06T03:19:45;6.70;99.90
14099;DHT22;7126;48.458;7.930;2024-01-06T03:22:11;6.70;99.90
14099;DHT22;7126;48.458;7.930;2024-01-06T03:24:36;6.70;99.90
14099;DHT22;7126;48.458;7.930;2024-01-06T03:27:02;6.70;99.90
14099;DHT22;7126;48.458;7.930;2024-01-06T03:29:27;6.70;99.90
14099;DHT22;7126;48.458;7.930;2024-01-06T03:31:53;6.70;99.90
14099;DHT22;7126;48.458;7.930;2024-01-06T03:34:19;6.70;99.90
14099;DHT22;7126;48.458;7.930;2024-01-06T03:36:44;6.70;99.90
14099;DHT22;7126;48.458;7.930;2024-01-06T03:39:10;6.70;99.90
14099;DHT22;7126;48.458;7.930;2024-01-06T03:41:39;6.70;99.90
14099;DHT22;7126;48.458;7.930;2024-01-06T03:44:04;6.80;99.90
14099;DHT22;7126;48.458;7.930;2024-01-06T03:46:30;6.80;99.90
14099;DHT22;7126;48.458;7.930;2024-01-06T03:48:56;6.70;99.90
14099;DHT22;7126;48.458;7.930;2024-01-06T03:51:21;6.70;99.90
14099;DHT22;7126;48.458;7.930;2024-01-06T03:53:47;6.70;99.90
14099;DHT22;7126;48.458;7.930;2024-01-06T03:56:13;6.70;99.90
14099;DHT22;7126;48.458;7.930;2024-01-06T03:58:38;6.70;99.90
14099;DHT22;7126;48.458;7.930;2024-01-06T04:01:04;6.70;99.90
14099;DHT22;7126;48.458;7.930;2024-01-06T04:03:29;6.70;99.90
14099;DHT22;7126;48.458;7.930;2024-01-06T04:05:55;6.70;99.90
14099;DHT22;7126;48.458;7.930;2024-01-06T04:08:20;6.70;99.90
14099;DHT22;7126;48.458;7.930;2024-01-06T04:10:46;6.70;99.90
14099;DHT22;7126;48.458;7.930;2024-01-06T04:13:12;6.70;99.90
14099;DHT22;7126;48.458;7.930;2024-01-06T04:15:37;6.70;99.90
14099;DHT22;7126;48.458;7.930;2024-01-06T04:18:04;6.70;99.90
14099;DHT22;7126;48.458;7.930;2024-01-06T04:20:30;6.70;99.90
14099;DHT22;7126;48.458;7.930;2024-01-06T04:22:56;6.60;99.90
14099;DHT22;7126;48.458;7.930;2024-01-06T04:25:21;6.60;99.90
14099;DHT22;7126;48.458;7.930;2024-01-06T04:27:47;6.50;99.90
14099;DHT22;7126;48.458;7.930;2024-01-06T04:30:14;6.40;99.90
14099;DHT22;7126;48.458;7.930;2024-01-06T04:32:40;6.40;99.90
14099;DHT22;7126;48.458;7.930;2024-01-06T04:35:06;6.40;99.90
14099;DHT22;7126;48.458;7.930;2024-01-06T04:37:31;6.40;99.90
14099;DHT22;7126;48.458;7.930;2024-01-06T04:39:57;6.40;99.90
14099;DHT22;7126;48.458;7.930;2024-01-06T04:42:22;6.50;99.90
14099;DHT22;7126;48.458;7.930;2024-01-06T04:44:49;6.50;99.90
14099;DHT22;7126;48.458;7.930;2024-01-06T04:47:14;6.60;99.90
14099;DHT22;7126;48.458;7.930;2024-01-06T04:49:40;6.60;99.90
14099;DHT22;7126;48.458;7.930;2024-01-06T04:52:05;6.60;99.90
14099;DHT22;7126;48.458;7.930;2024-01-06T04:54:31;6.60;99.90
14099;DHT22;7126;48.458;7.930;2024-01-06T04:56:58;6.50;99.90
14099;DHT22;7126;48.458;7.930;2024-01-06T04:59:24;6.50;99.90
14099;DHT22;7126;48.458;7.930;2024-01-06T05:01:50;6.50;99.90
14099;DHT22;7126;48.458;7.930;2024-01-06T05:04:17;6.50;99.90
14099;DHT22;7126;48.458;7.930;2024-01-06T05:06:42;6.50;99.90
14099;DHT22;7126;48.458;7.930;2024-01-06T05:09:08;6.50;99.90
14099;DHT22;7126;48.458;7.930;2024-01-06T05:11:33;6.40;99.90
14099;DHT22;7126;48.458;7.930;2024-01-06T05:13:59;6.40;99.90
14099;DHT22;7126;48.458;7.930;2024-01-06T05:16:24;6.30;99.90
14099;DHT22;7126;48.458;7.930;2024-01-06T05:18:50;6.30;99.90
14099;DHT22;7126;48.458;7.930;2024-01-06T05:21:16;6.30;99.90
14099;DHT22;7126;48.458;7.930;2024-01-06T05:23:41;6.40;99.90
14099;DHT22;7126;48.458;7.930;2024-01-06T05:26:07;6.40;99.90
14099;DHT22;7126;48.458;7.930;2024-01-06T05:28:32;6.40;99.90
14099;DHT22;7126;48.458;7.930;2024-01-06T05:30:58;6.40;99.90
14099;DHT22;7126;48.458;7.930;2024-01-06T05:33:23;6.40;99.90
14099;DHT22;7126;48.458;7.930;2024-01-06T05:35:49;6.40;99.90
14099;DHT22;7126;48.458;7.930;2024-01-06T05:38:14;6.30;99.90
14099;DHT22;7126;48.458;7.930;2024-01-06T05:40:40;6.40;99.90
14099;DHT22;7126;48.458;7.930;2024-01-06T05:43:06;6.40;99.90
14099;DHT22;7126;48.458;7.930;2024-01-06T05:45:31;6.40;99.90
14099;DHT22;7126;48.458;7.930;2024-01-06T05:47:57;6.40;99.90
14099;DHT22;7126;48.458;7.930;2024-01-06T05:50:22;6.40;99.90
14099;DHT22;7126;48.458;7.930;2024-01-06T05:52:48;6.40;99.90
14099;DHT22;7126;48.458;7.930;2024-01-06T05:55:14;6.30;99.90
14099;DHT22;7126;48.458;7.930;2024-01-06T05:57:39;6.30;99.90
14099;DHT22;7126;48.458;7.930;2024-01-06T06:00:08;6.40;99.90
14099;DHT22;7126;48.458;7.930;2024-01-06T06:02:34;6.40;99.90
14099;DHT22;7126;48.458;7.930;2024-01-06T06:05:00;6.50;99.90
14099;DHT22;7126;48.458;7.930;2024-01-06T06:07:25;6.40;99.90
14099;DHT22;7126;48.458;7.930;2024-01-06T06:09:51;6.50;99.90
14099;DHT22;7126;48.458;7.930;2024-01-06T06:12:18;6.40;99.90
14099;DHT22;7126;48.458;7.930;2024-01-06T06:14:43;6.40;99.90
14099;DHT22;7126;48.458;7.930;2024-01-06T06:17:09;6.40;99.90
14099;DHT22;7126;48.458;7.930;2024-01-06T06:19:35;6.50;99.90
14099;DHT22;7126;48.458;7.930;2024-01-06T06:22:00;6.50;99.90
14099;DHT22;7126;48.458;7.930;2024-01-06T06:24:25;6.50;99.90
14099;DHT22;7126;48.458;7.930;2024-01-06T06:26:51;6.50;99.90
14099;DHT22;7126;48.458;7.930;2024-01-06T06:29:17;6.50;99.90
14099;DHT22;7126;48.458;7.930;2024-01-06T06:31:42;6.60;99.90
14099;DHT22;7126;48.458;7.930;2024-01-06T06:34:12;6.60;99.90
14099;DHT22;7126;48.458;7.930;2024-01-06T06:36:38;6.70;99.90
14099;DHT22;7126;48.458;7.930;2024-01-06T06:39:03;6.70;99.90
14099;DHT22;7126;48.458;7.930;2024-01-06T06:41:29;6.70;99.90
14099;DHT22;7126;48.458;7.930;2024-01-06T06:43:55;6.70;99.90
14099;DHT22;7126;48.458;7.930;2024-01-06T06:46:21;6.70;99.90
14099;DHT22;7126;48.458;7.930;2024-01-06T06:48:46;6.60;99.90
14099;DHT22;7126;48.458;7.930;2024-01-06T06:51:12;6.60;99.90
14099;DHT22;7126;48.458;7.930;2024-01-06T06:53:38;6.70;99.90
14099;DHT22;7126;48.458;7.930;2024-01-06T06:56:03;6.60;99.90
14099;DHT22;7126;48.458;7.930;2024-01-06T06:58:29;6.70;99.90
14099;DHT22;7126;48.458;7.930;2024-01-06T07:00:54;6.70;99.90
14099;DHT22;7126;48.458;7.930;2024-01-06T07:03:20;6.70;99.90
14099;DHT22;7126;48.458;7.930;2024-01-06T07:05:46;6.70;99.90
14099;DHT22;7126;48.458;7.930;2024-01-06T07:08:11;6.60;99.90
14099;DHT22;7126;48.458;7.930;2024-01-06T07:10:40;6.60;99.90
14099;DHT22;7126;48.458;7.930;2024-01-06T07:13:05;6.60;99.90
14099;DHT22;7126;48.458;7.930;2024-01-06T07:15:31;6.60;99.90
14099;DHT22;7126;48.458;7.930;2024-01-06T07:17:56;6.60;99.90
14099;DHT22;7126;48.458;7.930;2024-01-06T07:20:22;6.60;99.90
14099;DHT22;7126;48.458;7.930;2024-01-06T07:22:47;6.60;99.90
14099;DHT22;7126;48.458;7.930;2024-01-06T07:25:13;6.60;99.90
14099;DHT22;7126;48.458;7.930;2024-01-06T07:27:38;6.60;99.90
14099;DHT22;7126;48.458;7.930;2024-01-06T07:30:04;6.60;99.90
14099;DHT22;7126;48.458;7.930;2024-01-06T07:32:30;6.70;99.90
14099;DHT22;7126;48.458;7.930;2024-01-06T07:34:56;6.60;99.90
14099;DHT22;7126;48.458;7.930;2024-01-06T07:37:21;6.60;99.90
14099;DHT22;7126;48.458;7.930;2024-01-06T07:39:47;6.60;99.90
14099;DHT22;7126;48.458;7.930;2024-01-06T07:42:12;6.70;99.90
14099;DHT22;7126;48.458;7.930;2024-01-06T07:44:38;6.70;99.90
14099;DHT22;7126;48.458;7.930;2024-01-06T07:47:03;6.60;99.90
14099;DHT22;7126;48.458;7.930;2024-01-06T07:49:30;6.60;99.90
14099;DHT22;7126;48.458;7.930;2024-01-06T07:51:56;6.70;99.90
14099;DHT22;7126;48.458;7.930;2024-01-06T07:54:21;6.80;99.90
14099;DHT22;7126;48.458;7.930;2024-01-06T07:56:47;6.80;99.90
14099;DHT22;7126;48.458;7.930;2024-01-06T07:59:12;6.90;99.90
14099;DHT22;7126;48.458;7.930;2024-01-06T08:01:38;6.90;99.90
14099;DHT22;7126;48.458;7.930;2024-01-06T08:04:04;6.90;99.90
14099;DHT22;7126;48.458;7.930;2024-01-06T08:06:29;7.00;99.90
14099;DHT22;7126;48.458;7.930;2024-01-06T08:08:55;6.90;99.90
14099;DHT22;7126;48.458;7.930;2024-01-06T08:11:20;6.90;99.90
14099;DHT22;7126;48.458;7.930;2024-01-06T08:13:46;6.90;99.90
14099;DHT22;7126;48.458;7.930;2024-01-06T08:16:11;6.80;99.90
14099;DHT22;7126;48.458;7.930;2024-01-06T08:18:37;6.80;99.90
14099;DHT22;7126;48.458;7.930;2024-01-06T08:21:03;6.80;99.90
14099;DHT22;7126;48.458;7.930;2024-01-06T08:23:28;6.80;99.90
14099;DHT22;7126;48.458;7.930;2024-01-06T08:25:54;6.80;99.90
14099;DHT22;7126;48.458;7.930;2024-01-06T08:28:19;6.80;99.90
14099;DHT22;7126;48.458;7.930;2024-01-06T08:30:46;6.90;99.90
14099;DHT22;7126;48.458;7.930;2024-01-06T08:33:12;7.00;99.90
14099;DHT22;7126;48.458;7.930;2024-01-06T08:35:37;7.10;99.90
14099;DHT22;7126;48.458;7.930;2024-01-06T08:38:06;7.10;99.90
14099;DHT22;7126;48.458;7.930;2024-01-06T08:40:34;7.00;99.90
14099;DHT22;7126;48.458;7.930;2024-01-06T08:43:00;7.00;99.90
14099;DHT22;7126;48.458;7.930;2024-01-06T08:45:26;7.10;99.90
14099;DHT22;7126;48.458;7.930;2024-01-06T08:47:51;7.10;99.90
14099;DHT22;7126;48.458;7.930;2024-01-06T08:50:17;7.10;99.90
14099;DHT22;7126;48.458;7.930;2024-01-06T08:52:42;7.10;99.90
14099;DHT22;7126;48.458;7.930;2024-01-06T08:55:08;7.10;99.90
14099;DHT22;7126;48.458;7.930;2024-01-06T08:57:33;7.10;99.90
14099;DHT22;7126;48.458;7.930;2024-01-06T08:59:59;7.10;99.90
14099;DHT22;7126;48.458;7.930;2024-01-06T09:02:24;7.10;99.90
14099;DHT22;7126;48.458;7.930;2024-01-06T09:04:50;7.10;99.90
14099;DHT22;7126;48.458;7.930;2024-01-06T09:07:15;7.20;99.90
14099;DHT22;7126;48.458;7.930;2024-01-06T09:09:42;7.20;99.90
14099;DHT22;7126;48.458;7.930;2024-01-06T09:12:08;7.20;99.90
14099;DHT22;7126;48.458;7.930;2024-01-06T09:14:33;7.30;99.90
14099;DHT22;7126;48.458;7.930;2024-01-06T09:16:59;7.40;99.90
14099;DHT22;7126;48.458;7.930;2024-01-06T09:19:24;7.40;99.90
14099;DHT22;7126;48.458;7.930;2024-01-06T09:21:50;7.50;99.90
14099;DHT22;7126;48.458;7.930;2024-01-06T09:24:16;7.50;99.90
14099;DHT22;7126;48.458;7.930;2024-01-06T09:26:42;7.50;99.90
14099;DHT22;7126;48.458;7.930;2024-01-06T09:29:07;7.50;99.90
14099;DHT22;7126;48.458;7.930;2024-01-06T09:31:33;7.50;99.90
14099;DHT22;7126;48.458;7.930;2024-01-06T09:34:02;7.50;99.90
14099;DHT22;7126;48.458;7.930;2024-01-06T09:36:31;7.50;99.90
14099;DHT22;7126;48.458;7.930;2024-01-06T09:38:57;7.50;99.90
14099;DHT22;7126;48.458;7.930;2024-01-06T09:41:23;7.60;99.90
14099;DHT22;7126;48.458;7.930;2024-01-06T09:43:50;7.70;99.90
14099;DHT22;7126;48.458;7.930;2024-01-06T09:46:23;7.70;99.90
14099;DHT22;7126;48.458;7.930;2024-01-06T09:48:52;7.70;99.90
14099;DHT22;7126;48.458;7.930;2024-01-06T09:51:19;7.70;99.90
14099;DHT22;7126;48.458;7.930;2024-01-06T09:53:48;7.70;99.90
14099;DHT22;7126;48.458;7.930;2024-01-06T09:56:15;7.70;99.90
14099;DHT22;7126;48.458;7.930;2024-01-06T09:58:42;7.70;99.90
14099;DHT22;7126;48.458;7.930;2024-01-06T10:01:08;7.70;99.90
14099;DHT22;7126;48.458;7.930;2024-01-06T10:03:35;7.70;99.90
14099;DHT22;7126;48.458;7.930;2024-01-06T10:06:01;7.70;99.90
14099;DHT22;7126;48.458;7.930;2024-01-06T10:08:29;7.80;99.90
14099;DHT22;7126;48.458;7.930;2024-01-06T10:10:55;7.90;99.90
14099;DHT22;7126;48.458;7.930;2024-01-06T10:13:20;8.00;99.90
14099;DHT22;7126;48.458;7.930;2024-01-06T10:15:46;8.10;99.90
14099;DHT22;7126;48.458;7.930;2024-01-06T10:18:13;8.10;99.90
14099;DHT22;7126;48.458;7.930;2024-01-06T10:20:38;8.00;99.90
14099;DHT22;7126;48.458;7.930;2024-01-06T10:23:05;8.00;99.90
14099;DHT22;7126;48.458;7.930;2024-01-06T10:25:31;7.90;99.90
14099;DHT22;7126;48.458;7.930;2024-01-06T10:27:57;8.00;99.90
14099;DHT22;7126;48.458;7.930;2024-01-06T10:30:25;8.00;99.90
14099;DHT22;7126;48.458;7.930;2024-01-06T10:32:51;8.00;99.90
14099;DHT22;7126;48.458;7.930;2024-01-06T10:35:18;8.10;99.90
14099;DHT22;7126;48.458;7.930;2024-01-06T10:37:44;8.20;99.90
14099;DHT22;7126;48.458;7.930;2024-01-06T10:40:15;8.20;99.90
14099;DHT22;7126;48.458;7.930;2024-01-06T10:42:44;8.30;99.90
14099;DHT22;7126;48.458;7.930;2024-01-06T10:45:12;8.30;99.90
14099;DHT22;7126;48.458;7.930;2024-01-06T10:47:40;8.40;99.90
14099;DHT22;7126;48.458;7.930;2024-01-06T10:50:06;8.40;99.90
14099;DHT22;7126;48.458;7.930;2024-01-06T10:52:33;8.40;99.90
14099;DHT22;7126;48.458;7.930;2024-01-06T10:55:00;8.50;99.90
14099;DHT22;7126;48.458;7.930;2024-01-06T10:57:27;8.40;99.90
14099;DHT22;7126;48.458;7.930;2024-01-06T10:59:54;8.40;99.90
14099;DHT22;7126;48.458;7.930;2024-01-06T11:02:19;8.40;99.90
14099;DHT22;7126;48.458;7.930;2024-01-06T11:04:46;8.40;99.90
14099;DHT22;7126;48.458;7.930;2024-01-06T11:07:13;8.40;99.90
14099;DHT22;7126;48.458;7.930;2024-01-06T11:09:44;8.50;99.90
14099;DHT22;7126;48.458;7.930;2024-01-06T11:12:12;8.50;99.90
14099;DHT22;7126;48.458;7.930;2024-01-06T11:14:38;8.50;99.90
14099;DHT22;7126;48.458;7.930;2024-01-06T11:17:03;8.50;99.90
14099;DHT22;7126;48.458;7.930;2024-01-06T11:22:39;8.60;99.90
14099;DHT22;7126;48.458;7.930;2024-01-06T11:25:13;8.60;99.90
14099;DHT22;7126;48.458;7.930;2024-01-06T11:27:39;8.60;99.90
14099;DHT22;7126;48.458;7.930;2024-01-06T11:30:05;8.60;99.90
14099;DHT22;7126;48.458;7.930;2024-01-06T11:32:35;8.60;99.90
14099;DHT22;7126;48.458;7.930;2024-01-06T11:35:13;8.60;99.90
14099;DHT22;7126;48.458;7.930;2024-01-06T11:40:22;8.60;99.90
14099;DHT22;7126;48.458;7.930;2024-01-06T11:45:28;8.60;99.90
14099;DHT22;7126;48.458;7.930;2024-01-06T11:48:01;8.60;99.90
14099;DHT22;7126;48.458;7.930;2024-01-06T11:50:32;8.60;99.90
14099;DHT22;7126;48.458;7.930;2024-01-06T11:52:58;8.70;99.90
14099;DHT22;7126;48.458;7.930;2024-01-06T11:55:25;8.70;99.90
14099;DHT22;7126;48.458;7.930;2024-01-06T11:57:56;8.70;99.90
14099;DHT22;7126;48.458;7.930;2024-01-06T12:00:23;8.60;99.90
14099;DHT22;7126;48.458;7.930;2024-01-06T12:02:49;8.60;99.90
14099;DHT22;7126;48.458;7.930;2024-01-06T12:05:18;8.70;99.90
14099;DHT22;7126;48.458;7.930;2024-01-06T12:07:54;8.60;99.90
14099;DHT22;7126;48.458;7.930;2024-01-06T12:10:21;8.60;99.90
14099;DHT22;7126;48.458;7.930;2024-01-06T12:13:04;8.60;99.90
14099;DHT22;7126;48.458;7.930;2024-01-06T12:15:31;8.60;99.90
14099;DHT22;7126;48.458;7.930;2024-01-06T12:17:58;8.60;99.90
14099;DHT22;7126;48.458;7.930;2024-01-06T12:20:24;8.60;99.90
14099;DHT22;7126;48.458;7.930;2024-01-06T12:22:53;8.60;99.90
14099;DHT22;7126;48.458;7.930;2024-01-06T12:25:23;8.60;99.90
14099;DHT22;7126;48.458;7.930;2024-01-06T12:27:49;8.60;99.90
14099;DHT22;7126;48.458;7.930;2024-01-06T12:30:16;8.60;99.90
14099;DHT22;7126;48.458;7.930;2024-01-06T12:32:45;8.60;99.90
14099;DHT22;7126;48.458;7.930;2024-01-06T12:35:11;8.60;99.90
14099;DHT22;7126;48.458;7.930;2024-01-06T12:37:37;8.60;99.90
14099;DHT22;7126;48.458;7.930;2024-01-06T12:40:03;8.50;99.90
14099;DHT22;7126;48.458;7.930;2024-01-06T12:42:29;8.50;99.90
14099;DHT22;7126;48.458;7.930;2024-01-06T12:44:54;8.60;99.90
14099;DHT22;7126;48.458;7.930;2024-01-06T12:47:20;8.60;99.90
14099;DHT22;7126;48.458;7.930;2024-01-06T12:49:45;8.60;99.90
14099;DHT22;7126;48.458;7.930;2024-01-06T12:52:11;8.60;99.90
14099;DHT22;7126;48.458;7.930;2024-01-06T12:54:38;8.60;99.90
14099;DHT22;7126;48.458;7.930;2024-01-06T12:57:04;8.70;99.90
14099;DHT22;7126;48.458;7.930;2024-01-06T12:59:29;8.70;99.90
14099;DHT22;7126;48.458;7.930;2024-01-06T13:01:56;8.60;99.90
14099;DHT22;7126;48.458;7.930;2024-01-06T13:04:22;8.70;99.90
14099;DHT22;7126;48.458;7.930;2024-01-06T13:06:47;8.70;99.90
14099;DHT22;7126;48.458;7.930;2024-01-06T13:09:14;8.70;99.90
14099;DHT22;7126;48.458;7.930;2024-01-06T13:11:41;8.70;99.90
14099;DHT22;7126;48.458;7.930;2024-01-06T13:14:07;8.60;99.90
14099;DHT22;7126;48.458;7.930;2024-01-06T13:16:33;8.70;99.90
14099;DHT22;7126;48.458;7.930;2024-01-06T13:18:59;8.70;99.90
14099;DHT22;7126;48.458;7.930;2024-01-06T13:21:25;8.70;99.90
14099;DHT22;7126;48.458;7.930;2024-01-06T13:23:51;8.70;99.90
14099;DHT22;7126;48.458;7.930;2024-01-06T13:26:16;8.70;99.90
14099;DHT22;7126;48.458;7.930;2024-01-06T13:28:42;8.70;99.90
14099;DHT22;7126;48.458;7.930;2024-01-06T13:31:07;8.70;99.90
14099;DHT22;7126;48.458;7.930;2024-01-06T13:33:34;8.70;99.90
14099;DHT22;7126;48.458;7.930;2024-01-06T13:36:00;8.70;99.90
14099;DHT22;7126;48.458;7.930;2024-01-06T13:38:26;8.70;99.90
14099;DHT22;7126;48.458;7.930;2024-01-06T13:40:52;8.60;99.90
14099;DHT22;7126;48.458;7.930;2024-01-06T13:43:18;8.60;99.90
14099;DHT22;7126;48.458;7.930;2024-01-06T13:45:43;8.60;99.90
14099;DHT22;7126;48.458;7.930;2024-01-06T13:48:10;8.60;99.90
14099;DHT22;7126;48.458;7.930;2024-01-06T13:50:35;8.60;99.90
14099;DHT22;7126;48.458;7.930;2024-01-06T13:53:01;8.50;99.90
14099;DHT22;7126;48.458;7.930;2024-01-06T13:55:28;8.50;99.90
14099;DHT22;7126;48.458;7.930;2024-01-06T13:57:54;8.50;99.90
14099;DHT22;7126;48.458;7.930;2024-01-06T14:00:19;8.50;99.90
14099;DHT22;7126;48.458;7.930;2024-01-06T14:02:46;8.50;99.90
14099;DHT22;7126;48.458;7.930;2024-01-06T14:05:14;8.50;99.90
14099;DHT22;7126;48.458;7.930;2024-01-06T14:07:40;8.50;99.90
14099;DHT22;7126;48.458;7.930;2024-01-06T14:10:11;8.50;99.90
14099;DHT22;7126;48.458;7.930;2024-01-06T14:12:36;8.50;99.90
14099;DHT22;7126;48.458;7.930;2024-01-06T14:15:02;8.50;99.90
14099;DHT22;7126;48.458;7.930;2024-01-06T14:17:28;8.50;99.90
14099;DHT22;7126;48.458;7.930;2024-01-06T14:19:54;8.50;99.90
14099;DHT22;7126;48.458;7.930;2024-01-06T14:22:19;8.40;99.90
14099;DHT22;7126;48.458;7.930;2024-01-06T14:24:45;8.40;99.90
14099;DHT22;7126;48.458;7.930;2024-01-06T14:27:10;8.40;99.90
14099;DHT22;7126;48.458;7.930;2024-01-06T14:29:36;8.40;99.90
14099;DHT22;7126;48.458;7.930;2024-01-06T14:32:01;8.30;99.90
14099;DHT22;7126;48.458;7.930;2024-01-06T14:34:27;8.30;99.90
14099;DHT22;7126;48.458;7.930;2024-01-06T14:36:52;8.30;99.90
14099;DHT22;7126;48.458;7.930;2024-01-06T14:39:18;8.20;99.90
14099;DHT22;7126;48.458;7.930;2024-01-06T14:41:47;8.20;99.90
14099;DHT22;7126;48.458;7.930;2024-01-06T14:44:12;8.20;99.90
14099;DHT22;7126;48.458;7.930;2024-01-06T14:46:38;8.20;99.90
14099;DHT22;7126;48.458;7.930;2024-01-06T14:49:04;8.20;99.90
14099;DHT22;7126;48.458;7.930;2024-01-06T14:51:29;8.20;99.90
14099;DHT22;7126;48.458;7.930;2024-01-06T14:53:55;8.20;99.90
14099;DHT22;7126;48.458;7.930;2024-01-06T14:56:22;8.20;99.90
14099;DHT22;7126;48.458;7.930;2024-01-06T14:58:47;8.10;99.90
14099;DHT22;7126;48.458;7.930;2024-01-06T15:01:13;8.10;99.90
14099;DHT22;7126;48.458;7.930;2024-01-06T15:03:38;8.10;99.90
14099;DHT22;7126;48.458;7.930;2024-01-06T15:06:04;8.00;99.90
14099;DHT22;7126;48.458;7.930;2024-01-06T15:08:30;8.00;99.90
14099;DHT22;7126;48.458;7.930;2024-01-06T15:10:55;8.00;99.90
14099;DHT22;7126;48.458;7.930;2024-01-06T15:13:21;8.00;99.90
14099;DHT22;7126;48.458;7.930;2024-01-06T15:15:47;8.00;99.90
14099;DHT22;7126;48.458;7.930;2024-01-06T15:18:13;8.00;99.90
14099;DHT22;7126;48.458;7.930;2024-01-06T15:20:39;8.00;99.90
14099;DHT22;7126;48.458;7.930;2024-01-06T15:23:05;7.90;99.90
14099;DHT22;7126;48.458;7.930;2024-01-06T15:25:31;7.90;99.90
14099;DHT22;7126;48.458;7.930;2024-01-06T15:27:56;7.90;99.90
14099;DHT22;7126;48.458;7.930;2024-01-06T15:30:22;7.90;99.90
14099;DHT22;7126;48.458;7.930;2024-01-06T15:32:48;7.90;99.90
14099;DHT22;7126;48.458;7.930;2024-01-06T15:35:14;7.90;99.90
14099;DHT22;7126;48.458;7.930;2024-01-06T15:37:39;7.90;99.90
14099;DHT22;7126;48.458;7.930;2024-01-06T15:40:05;7.90;99.90
14099;DHT22;7126;48.458;7.930;2024-01-06T15:42:31;7.90;99.90
14099;DHT22;7126;48.458;7.930;2024-01-06T15:44:59;7.90;99.90
14099;DHT22;7126;48.458;7.930;2024-01-06T15:47:25;7.90;99.90
14099;DHT22;7126;48.458;7.930;2024-01-06T15:49:50;7.90;99.90
14099;DHT22;7126;48.458;7.930;2024-01-06T15:52:16;7.90;99.90
14099;DHT22;7126;48.458;7.930;2024-01-06T15:54:49;8.00;99.90
14099;DHT22;7126;48.458;7.930;2024-01-06T15:57:14;7.90;99.90
14099;DHT22;7126;48.458;7.930;2024-01-06T15:59:40;7.90;99.90
14099;DHT22;7126;48.458;7.930;2024-01-06T16:02:05;7.90;99.90